createdAt,value
2024-05-09T00:00:59.117Z,28.03
2024-05-09T00:04:03.752Z,31.03
2024-05-09T00:07:08.244Z,31.97
2024-05-09T00:10:22.099Z,28.80
2024-05-09T00:13:33.019Z,29.17
2024-05-09T00:16:37.127Z,32.37
2024-05-09T00:19:43.596Z,33.50
2024-05-09T00:22:48.070Z,31.93
2024-05-09T00:25:52.340Z,31.57
2024-05-09T00:28:56.796Z,32.77
2024-05-09T00:32:00.971Z,31.90
2024-05-09T00:35:05.916Z,33.97
2024-05-09T00:38:10.759Z,29.60
2024-05-09T00:41:17.139Z,35.20
2024-05-09T00:44:23.391Z,33.87
2024-05-09T00:47:28.040Z,32.10
2024-05-09T00:50:36.839Z,29.17
2024-05-09T00:53:42.725Z,35.57
2024-05-09T00:56:48.515Z,31.10
2024-05-09T00:59:53.799Z,33.23
2024-05-09T01:02:57.871Z,34.63
2024-05-09T01:06:02.161Z,32.00
2024-05-09T01:09:06.678Z,32.73
2024-05-09T01:12:10.862Z,33.10
2024-05-09T01:15:15.245Z,34.20
2024-05-09T01:18:19.608Z,35.53
2024-05-09T01:21:24.464Z,32.67
2024-05-09T01:24:28.690Z,36.10
2024-05-09T01:27:33.129Z,32.43
2024-05-09T01:30:38.230Z,32.47
2024-05-09T01:33:46.315Z,31.70
2024-05-09T01:36:50.742Z,29.20
2024-05-09T01:39:54.938Z,31.27
2024-05-09T01:42:59.306Z,30.83
2024-05-09T01:46:03.708Z,30.83
2024-05-09T01:49:08.339Z,32.93
2024-05-09T01:52:12.662Z,31.87
2024-05-09T01:55:16.781Z,33.90
2024-05-09T01:58:21.150Z,32.90
2024-05-09T02:01:25.459Z,32.53
2024-05-09T02:04:30.695Z,34.83
2024-05-09T02:07:35.087Z,35.30
2024-05-09T02:10:39.501Z,36.37
2024-05-09T02:13:43.784Z,32.93
2024-05-09T02:16:48.542Z,31.70
2024-05-09T02:19:52.577Z,32.60
2024-05-09T02:22:57.545Z,33.87
2024-05-09T02:26:01.728Z,32.50
2024-05-09T02:29:09.048Z,31.73
2024-05-09T02:32:16.437Z,34.13
2024-05-09T02:35:21.040Z,36.07
2024-05-09T02:38:25.661Z,35.83
2024-05-09T02:41:30.105Z,32.27
2024-05-09T02:44:34.138Z,33.80
2024-05-09T02:47:38.841Z,31.03
2024-05-09T02:50:45.911Z,36.03
2024-05-09T02:53:49.958Z,34.73
2024-05-09T02:56:54.191Z,30.63
2024-05-09T02:59:58.764Z,31.30
2024-05-09T03:03:03.390Z,32.93
2024-05-09T03:06:07.579Z,31.60
2024-05-09T03:09:12.107Z,31.80
2024-05-09T03:12:16.458Z,29.60
2024-05-09T03:15:22.543Z,31.97
2024-05-09T03:18:27.188Z,33.60
2024-05-09T03:21:31.597Z,34.87
2024-05-09T03:24:35.830Z,34.07
2024-05-09T03:27:40.087Z,42.70
2024-05-09T03:30:44.535Z,29.80
2024-05-09T03:33:48.729Z,28.63
2024-05-09T03:36:53.112Z,32.50
2024-05-09T03:39:57.280Z,31.20
2024-05-09T03:43:01.525Z,29.30
2024-05-09T03:46:06.007Z,28.47
2024-05-09T03:49:10.296Z,27.73
2024-05-09T03:52:14.357Z,30.40
2024-05-09T03:55:18.897Z,27.00
2024-05-09T03:58:23.110Z,28.80
2024-05-09T04:01:29.979Z,30.07
2024-05-09T04:04:34.349Z,28.47
2024-05-09T04:07:38.384Z,32.60
2024-05-09T04:10:42.548Z,33.23
2024-05-09T04:13:46.767Z,32.37
2024-05-09T04:16:51.244Z,31.47
2024-05-09T04:19:55.745Z,28.10
2024-05-09T04:23:00.380Z,30.70
2024-05-09T04:26:04.910Z,31.13
2024-05-09T04:29:09.567Z,31.83
2024-05-09T04:32:14.166Z,34.57
2024-05-09T04:35:20.449Z,32.70
2024-05-09T04:38:24.637Z,30.83
2024-05-09T04:41:29.153Z,27.17
2024-05-09T04:44:33.762Z,32.30
2024-05-09T04:47:38.136Z,29.90
2024-05-09T04:50:42.846Z,30.80
2024-05-09T04:53:47.445Z,33.27
2024-05-09T04:56:51.559Z,35.40
2024-05-09T04:59:55.786Z,30.43
2024-05-09T05:03:00.285Z,35.30
2024-05-09T05:06:04.898Z,30.43
2024-05-09T05:09:09.366Z,29.57
2024-05-09T05:12:32.414Z,36.73
2024-05-09T05:15:36.435Z,35.17
2024-05-09T05:18:40.889Z,30.80
2024-05-09T05:21:45.081Z,33.47
2024-05-09T05:24:49.685Z,34.70
2024-05-09T05:27:53.825Z,31.73
2024-05-09T05:30:58.120Z,35.50
2024-05-09T05:34:02.171Z,36.57
2024-05-09T05:37:06.369Z,37.67
2024-05-09T05:40:14.639Z,39.87
2024-05-09T05:43:21.820Z,32.87
2024-05-09T05:46:25.981Z,37.63
2024-05-09T05:49:30.426Z,37.77
2024-05-09T05:52:34.529Z,37.60
2024-05-09T05:55:40.242Z,35.33
2024-05-09T05:58:44.864Z,37.63
2024-05-09T06:01:50.368Z,33.73
2024-05-09T06:04:55.130Z,36.73
2024-05-09T06:07:59.597Z,40.70
2024-05-09T06:11:04.462Z,37.03
2024-05-09T06:14:09.208Z,38.87
2024-05-09T06:17:13.576Z,40.30
2024-05-09T06:20:23.913Z,35.73
2024-05-09T06:23:36.121Z,37.70
2024-05-09T06:26:46.597Z,39.90
2024-05-09T06:29:51.352Z,39.87
2024-05-09T06:32:55.915Z,39.67
2024-05-09T06:36:00.204Z,39.23
2024-05-09T06:39:04.749Z,36.37
2024-05-09T06:42:09.219Z,36.33
2024-05-09T06:45:15.703Z,37.80
2024-05-09T06:48:21.477Z,36.30
2024-05-09T06:51:26.549Z,40.60
2024-05-09T06:54:31.189Z,36.00
2024-05-09T06:57:36.664Z,39.17
2024-05-09T07:00:42.222Z,36.80
2024-05-09T07:03:47.188Z,39.30
2024-05-09T07:06:51.317Z,35.50
2024-05-09T07:09:55.528Z,35.97
2024-05-09T07:12:59.697Z,35.97
2024-05-09T07:16:04.229Z,37.40
2024-05-09T07:19:09.391Z,38.67
2024-05-09T07:22:14.139Z,34.43
2024-05-09T07:25:18.396Z,35.63
2024-05-09T07:28:22.561Z,33.13
2024-05-09T07:31:30.421Z,34.40
2024-05-09T07:34:35.417Z,36.17
2024-05-09T07:37:40.944Z,32.33
2024-05-09T07:40:46.931Z,31.07
2024-05-09T07:43:51.067Z,33.00
2024-05-09T07:48:13.993Z,33.47
2024-05-09T07:53:39.869Z,32.60
2024-05-09T07:56:48.943Z,30.93
2024-05-09T07:59:53.451Z,33.57
2024-05-09T08:02:57.720Z,32.53
2024-05-09T08:06:02.377Z,32.73
2024-05-09T08:09:10.996Z,30.97
2024-05-09T08:12:18.292Z,29.87
2024-05-09T08:15:22.747Z,30.83
2024-05-09T08:18:26.929Z,30.60
2024-05-09T08:21:31.553Z,28.50
2024-05-09T08:24:38.829Z,30.70
2024-05-09T08:27:43.307Z,30.97
2024-05-09T08:30:47.987Z,28.30
2024-05-09T08:33:52.595Z,26.27
2024-05-09T08:36:59.675Z,24.40
2024-05-09T08:40:11.044Z,28.50
2024-05-09T08:43:20.177Z,25.37
2024-05-09T08:46:26.736Z,26.37
2024-05-09T08:49:31.374Z,24.70
2024-05-09T08:52:35.890Z,24.40
2024-05-09T08:55:44.194Z,20.60
2024-05-09T08:58:55.987Z,23.80
2024-05-09T09:02:00.182Z,21.87
2024-05-09T09:05:11.159Z,19.07
2024-05-09T09:08:16.049Z,23.60
2024-05-09T09:11:20.973Z,24.80
2024-05-09T09:14:25.366Z,19.37
2024-05-09T09:17:29.736Z,20.87
2024-05-09T09:20:36.678Z,18.50
2024-05-09T09:23:41.864Z,15.80
2024-05-09T09:26:46.094Z,19.00
2024-05-09T09:29:50.219Z,15.57
2024-05-09T09:32:55.623Z,16.23
2024-05-09T09:36:00.681Z,13.73
2024-05-09T09:39:05.926Z,12.23
2024-05-09T09:42:11.428Z,16.80
2024-05-09T09:45:16.816Z,11.73
2024-05-09T09:48:22.565Z,11.20
2024-05-09T09:51:27.662Z,11.63
2024-05-09T09:54:32.336Z,7.60
2024-05-09T09:57:37.924Z,8.37
2024-05-09T10:00:42.517Z,7.30
2024-05-09T10:03:47.317Z,8.47
2024-05-09T10:06:58.571Z,12.63
2024-05-09T10:10:03.348Z,8.20
2024-05-09T10:13:08.875Z,7.60
2024-05-09T10:16:13.108Z,9.70
2024-05-09T10:19:24.700Z,9.30
2024-05-09T10:22:29.779Z,8.50
2024-05-09T10:25:34.161Z,12.03
2024-05-09T10:28:42.783Z,11.63
2024-05-09T10:31:47.889Z,11.10
2024-05-09T10:35:08.414Z,10.30
2024-05-09T10:38:12.610Z,10.93
2024-05-09T10:41:16.853Z,10.27
2024-05-09T10:44:21.690Z,12.80
2024-05-09T10:47:26.478Z,7.57
2024-05-09T10:50:34.183Z,11.37
2024-05-09T10:53:45.816Z,12.03
2024-05-09T10:56:56.937Z,10.83
2024-05-09T11:00:01.168Z,11.70
2024-05-09T11:03:05.834Z,11.47
2024-05-09T11:06:11.288Z,10.30
2024-05-09T11:09:15.639Z,9.47
2024-05-09T11:12:22.042Z,9.33
2024-05-09T11:15:38.229Z,9.80
2024-05-09T11:18:43.644Z,8.07
2024-05-09T11:21:51.815Z,9.30
2024-05-09T11:24:56.775Z,11.00
2024-05-09T11:28:01.741Z,10.60
2024-05-09T11:31:12.452Z,9.50
2024-05-09T11:34:16.742Z,8.30
2024-05-09T11:37:21.272Z,8.30
2024-05-09T11:40:31.968Z,9.90
2024-05-09T11:43:38.303Z,11.17
2024-05-09T11:46:43.329Z,8.97
2024-05-09T11:49:48.565Z,9.80
2024-05-09T11:52:52.834Z,10.70
2024-05-09T11:55:57.097Z,10.50
2024-05-09T11:59:01.690Z,8.53
2024-05-09T12:02:06.136Z,9.50
2024-05-09T12:05:12.313Z,8.30
2024-05-09T12:08:16.717Z,9.00
2024-05-09T12:11:22.207Z,8.80
2024-05-09T12:14:26.438Z,9.47
2024-05-09T12:17:30.668Z,8.37
2024-05-09T12:20:37.951Z,9.00
2024-05-09T12:23:44.392Z,9.43
2024-05-09T12:26:49.834Z,10.17
2024-05-09T12:29:55.651Z,9.27
2024-05-09T12:33:01.693Z,11.03
2024-05-09T12:36:09.182Z,13.97
2024-05-09T12:39:15.993Z,9.63
2024-05-09T12:42:27.152Z,8.30
2024-05-09T12:45:35.654Z,12.60
2024-05-09T12:48:40.119Z,7.80
2024-05-09T12:51:44.528Z,9.17
2024-05-09T12:54:49.329Z,10.20
2024-05-09T12:57:58.277Z,7.67
2024-05-09T13:01:02.709Z,8.60
2024-05-09T13:04:07.342Z,10.00
2024-05-09T13:07:18.768Z,10.50
2024-05-09T13:10:32.035Z,9.63
2024-05-09T13:13:37.685Z,8.20
2024-05-09T13:16:42.050Z,8.80
2024-05-09T13:19:46.823Z,7.67
2024-05-09T13:22:51.265Z,8.00
2024-05-09T13:25:58.386Z,9.10
2024-05-09T13:29:04.964Z,6.63
2024-05-09T13:32:21.127Z,11.80
2024-05-09T13:35:29.008Z,8.93
2024-05-09T13:38:33.430Z,9.30
2024-05-09T13:41:37.633Z,7.60
2024-05-09T13:44:41.869Z,8.97
2024-05-09T13:47:45.988Z,7.53
2024-05-09T13:50:53.519Z,8.47
2024-05-09T13:53:59.414Z,7.63
2024-05-09T13:57:05.634Z,7.67
2024-05-09T14:00:22.238Z,8.77
2024-05-09T14:03:36.303Z,8.57
2024-05-09T14:06:41.471Z,9.60
2024-05-09T14:09:55.067Z,10.90
2024-05-09T14:13:00.755Z,7.60
2024-05-09T14:16:06.221Z,6.97
2024-05-09T14:19:10.819Z,6.37
2024-05-09T14:22:15.228Z,6.93
2024-05-09T14:25:20.466Z,8.57
2024-05-09T14:28:26.155Z,6.10
2024-05-09T14:31:35.460Z,7.33
2024-05-09T14:34:40.512Z,7.20
2024-05-09T14:37:45.055Z,5.03
2024-05-09T14:40:50.769Z,6.20
2024-05-09T14:43:55.158Z,5.70
2024-05-09T14:47:02.574Z,6.90
2024-05-09T14:50:13.902Z,5.60
2024-05-09T14:53:23.770Z,10.10
2024-05-09T14:56:28.058Z,6.30
2024-05-09T14:59:32.612Z,5.93
2024-05-09T15:02:38.096Z,6.60
2024-05-09T15:05:42.702Z,7.50
2024-05-09T15:08:54.973Z,5.87
2024-05-09T15:11:59.335Z,5.60
2024-05-09T15:15:04.205Z,6.83
2024-05-09T15:18:08.801Z,6.33
2024-05-09T15:21:12.960Z,6.80
2024-05-09T15:24:17.323Z,6.90
2024-05-09T15:27:21.699Z,6.67
2024-05-09T15:33:33.513Z,6.97
2024-05-09T15:36:39.242Z,6.70
2024-05-09T15:39:44.893Z,9.43
2024-05-09T15:42:49.267Z,6.97
2024-05-09T15:45:54.062Z,6.40
2024-05-09T15:48:59.004Z,7.10
2024-05-09T15:52:03.860Z,6.33
2024-05-09T15:55:10.054Z,6.00
2024-05-09T15:58:14.440Z,5.60
2024-05-09T16:01:18.601Z,5.90
2024-05-09T16:04:23.279Z,6.17
2024-05-09T16:07:28.433Z,5.17
2024-05-09T16:10:34.497Z,4.70
2024-05-09T16:13:39.477Z,6.77
2024-05-09T16:16:44.157Z,5.90
2024-05-09T16:19:48.395Z,4.90
2024-05-09T16:22:52.725Z,6.73
2024-05-09T16:25:57.622Z,5.17
2024-05-09T16:29:01.722Z,4.83
2024-05-09T16:32:06.537Z,4.53
2024-05-09T16:35:10.612Z,7.23
2024-05-09T16:38:15.026Z,5.50
2024-05-09T16:41:19.827Z,5.73
2024-05-09T16:44:24.178Z,4.37
2024-05-09T16:47:28.556Z,5.23
2024-05-09T16:50:34.817Z,5.80
2024-05-09T16:53:40.478Z,4.40
2024-05-09T16:56:45.136Z,7.67
2024-05-09T16:59:49.552Z,5.80
2024-05-09T17:02:54.526Z,8.90
2024-05-09T17:06:03.147Z,6.03
2024-05-09T17:09:11.737Z,6.13
2024-05-09T17:12:19.961Z,6.70
2024-05-09T17:15:24.346Z,5.57
2024-05-09T17:18:28.722Z,5.57
2024-05-09T17:21:33.383Z,5.63
2024-05-09T17:24:37.804Z,5.67
2024-05-09T17:27:42.286Z,6.33
2024-05-09T17:30:46.692Z,5.60
2024-05-09T17:33:51.128Z,7.63
2024-05-09T17:36:55.578Z,6.23
2024-05-09T17:40:00.008Z,5.90
2024-05-09T17:43:13.313Z,6.17
2024-05-09T17:46:17.894Z,5.60
2024-05-09T17:49:22.167Z,5.87
2024-05-09T17:52:26.799Z,5.93
2024-05-09T17:55:31.046Z,6.83
2024-05-09T17:58:35.147Z,5.73
2024-05-09T18:01:39.344Z,6.40
2024-05-09T18:04:44.284Z,6.50
2024-05-09T18:07:49.114Z,5.97
2024-05-09T18:10:55.355Z,6.50
2024-05-09T18:14:00.263Z,5.23
2024-05-09T18:17:05.004Z,6.70
2024-05-09T18:20:14.131Z,11.97
2024-05-09T18:23:23.952Z,6.40
2024-05-09T18:26:28.355Z,6.13
2024-05-09T18:29:32.963Z,8.83
2024-05-09T18:32:37.478Z,7.33
2024-05-09T18:35:45.120Z,5.43
2024-05-09T18:38:49.567Z,5.20
2024-05-09T18:41:53.861Z,5.77
2024-05-09T18:44:58.390Z,6.23
2024-05-09T18:48:04.791Z,5.17
2024-05-09T18:51:09.072Z,5.63
2024-05-09T18:54:13.430Z,5.33
2024-05-09T18:57:20.729Z,5.60
2024-05-09T19:00:33.818Z,6.90
2024-05-09T19:03:41.937Z,9.17
2024-05-09T19:06:46.279Z,7.27
2024-05-09T19:09:50.621Z,8.33
2024-05-09T19:12:55.315Z,8.80
2024-05-09T19:15:59.899Z,10.00
2024-05-09T19:19:05.137Z,6.97
2024-05-09T19:22:09.478Z,8.10
2024-05-09T19:25:13.779Z,10.93
2024-05-09T19:28:18.753Z,7.80
2024-05-09T19:31:23.176Z,7.63
2024-05-09T19:34:29.613Z,8.30
2024-05-09T19:37:33.985Z,7.50
2024-05-09T19:40:38.043Z,7.27
2024-05-09T19:43:42.177Z,8.03
2024-05-09T19:46:46.815Z,8.80
2024-05-09T19:49:51.602Z,7.80
2024-05-09T19:52:55.838Z,7.33
2024-05-09T19:55:59.920Z,6.90
2024-05-09T19:59:04.258Z,9.87
2024-05-09T20:02:09.035Z,9.53
2024-05-09T20:05:13.968Z,10.80
2024-05-09T20:08:18.375Z,10.60
2024-05-09T20:11:23.717Z,10.90
2024-05-09T20:14:28.035Z,12.43
2024-05-09T20:17:32.536Z,12.20
2024-05-09T20:20:40.910Z,13.00
2024-05-09T20:23:47.229Z,10.97
2024-05-09T20:26:51.560Z,10.27
2024-05-09T20:29:55.738Z,11.13
2024-05-09T20:33:00.195Z,9.60
2024-05-09T20:36:05.781Z,8.70
2024-05-09T20:39:10.224Z,9.93
2024-05-09T20:42:14.691Z,9.17
2024-05-09T20:45:19.194Z,10.40
2024-05-09T20:48:24.690Z,9.50
2024-05-09T20:51:30.455Z,9.40
2024-05-09T20:54:34.565Z,9.60
2024-05-09T20:57:39.308Z,11.73
2024-05-09T21:00:45.737Z,10.47
2024-05-09T21:03:51.086Z,10.00
2024-05-09T21:06:55.602Z,11.37
2024-05-09T21:10:00.292Z,11.20
2024-05-09T21:13:04.771Z,11.47
2024-05-09T21:16:09.533Z,11.97
2024-05-09T21:19:13.894Z,11.50
2024-05-09T21:22:18.472Z,10.60
2024-05-09T21:25:22.820Z,9.97
2024-05-09T21:28:31.055Z,9.90
2024-05-09T21:31:37.849Z,10.80
2024-05-09T21:34:42.080Z,10.67
2024-05-09T21:37:47.097Z,10.40
2024-05-09T21:40:51.375Z,9.70
2024-05-09T21:43:55.933Z,11.00
2024-05-09T21:47:00.397Z,11.07
2024-05-09T21:50:06.040Z,10.50
2024-05-09T21:53:12.723Z,12.10
2024-05-09T21:56:17.573Z,13.87
2024-05-09T21:59:21.879Z,13.83
2024-05-09T22:02:26.625Z,10.20
2024-05-09T22:05:31.030Z,10.67
2024-05-09T22:08:35.075Z,11.73
2024-05-09T22:11:39.442Z,13.50
2024-05-09T22:14:43.626Z,12.87
2024-05-09T22:17:48.403Z,11.30
2024-05-09T22:20:52.714Z,11.47
2024-05-09T22:23:57.200Z,10.53
2024-05-09T22:27:01.620Z,12.03
2024-05-09T22:30:09.200Z,14.60
2024-05-09T22:33:16.075Z,13.10
2024-05-09T22:36:20.507Z,11.60
2024-05-09T22:39:24.872Z,12.87
2024-05-09T22:42:29.330Z,12.47
2024-05-09T22:45:33.417Z,13.53
2024-05-09T22:48:37.835Z,14.80
2024-05-09T22:51:42.700Z,12.27
2024-05-09T22:54:47.288Z,12.40
2024-05-09T22:57:51.711Z,12.80
2024-05-09T23:00:56.050Z,14.20
2024-05-09T23:04:00.481Z,15.97
2024-05-09T23:07:05.130Z,12.27
2024-05-09T23:10:13.452Z,13.43
2024-05-09T23:13:25.082Z,14.60
2024-05-09T23:16:29.576Z,13.87
2024-05-09T23:19:34.763Z,11.57
2024-05-09T23:22:39.481Z,11.90
2024-05-09T23:25:44.157Z,12.30
2024-05-09T23:28:48.610Z,14.17
2024-05-09T23:31:53.431Z,13.33
2024-05-09T23:34:57.382Z,13.07
2024-05-09T23:38:01.920Z,12.83
2024-05-09T23:41:06.794Z,13.00
2024-05-09T23:44:10.910Z,16.60
2024-05-09T23:47:14.970Z,15.07
2024-05-09T23:50:26.342Z,16.33
2024-05-09T23:53:37.099Z,16.23
2024-05-09T23:56:41.468Z,16.23
2024-05-09T23:59:45.566Z,16.00
